sensor_id;sensor_type;location;lat;lon;timestamp;P1;durP1;ratioP1;P2;durP2;ratioP2
12469;SDS011;36499;46.484;13.832;2023-04-12T00:02:02;5.13;;;2.10;;
12469;SDS011;36499;46.484;13.832;2023-04-12T00:04:30;3.40;;;2.03;;
12469;SDS011;36499;46.484;13.832;2023-04-12T00:06:58;2.30;;;1.40;;
12469;SDS011;36499;46.484;13.832;2023-04-12T00:09:26;6.23;;;3.17;;
12469;SDS011;36499;46.484;13.832;2023-04-12T00:11:54;3.70;;;2.10;;
12469;SDS011;36499;46.484;13.832;2023-04-12T00:14:24;3.87;;;2.27;;
12469;SDS011;36499;46.484;13.832;2023-04-12T00:16:51;9.07;;;4.40;;
12469;SDS011;36499;46.484;13.832;2023-04-12T00:19:18;3.03;;;1.80;;
12469;SDS011;36499;46.484;13.832;2023-04-12T00:21:45;3.53;;;1.67;;
12469;SDS011;36499;46.484;13.832;2023-04-12T00:24:12;5.73;;;2.77;;
12469;SDS011;36499;46.484;13.832;2023-04-12T00:26:39;5.20;;;2.90;;
12469;SDS011;36499;46.484;13.832;2023-04-12T00:29:06;11.43;;;4.10;;
12469;SDS011;36499;46.484;13.832;2023-04-12T00:31:35;4.50;;;2.63;;
12469;SDS011;36499;46.484;13.832;2023-04-12T00:34:02;5.37;;;2.40;;
12469;SDS011;36499;46.484;13.832;2023-04-12T00:36:29;8.73;;;3.67;;
12469;SDS011;36499;46.484;13.832;2023-04-12T00:38:56;2.90;;;1.90;;
12469;SDS011;36499;46.484;13.832;2023-04-12T00:41:24;4.70;;;2.37;;
12469;SDS011;36499;46.484;13.832;2023-04-12T00:43:52;5.73;;;3.27;;
12469;SDS011;36499;46.484;13.832;2023-04-12T00:46:19;9.57;;;3.87;;
12469;SDS011;36499;46.484;13.832;2023-04-12T00:48:48;10.87;;;3.90;;
12469;SDS011;36499;46.484;13.832;2023-04-12T00:51:15;1.67;;;1.20;;
12469;SDS011;36499;46.484;13.832;2023-04-12T00:53:46;2.60;;;1.50;;
12469;SDS011;36499;46.484;13.832;2023-04-12T00:56:14;1.77;;;1.47;;
12469;SDS011;36499;46.484;13.832;2023-04-12T00:58:41;3.77;;;1.30;;
12469;SDS011;36499;46.484;13.832;2023-04-12T01:01:08;1.40;;;1.20;;
12469;SDS011;36499;46.484;13.832;2023-04-12T01:03:35;1.63;;;1.50;;
12469;SDS011;36499;46.484;13.832;2023-04-12T01:06:10;2.10;;;1.50;;
12469;SDS011;36499;46.484;13.832;2023-04-12T01:08:55;5.83;;;1.90;;
12469;SDS011;36499;46.484;13.832;2023-04-12T01:11:36;2.57;;;1.47;;
12469;SDS011;36499;46.484;13.832;2023-04-12T01:14:08;4.37;;;1.23;;
12469;SDS011;36499;46.484;13.832;2023-04-12T01:16:45;1.37;;;1.10;;
12469;SDS011;36499;46.484;13.832;2023-04-12T01:19:28;1.20;;;1.10;;
12469;SDS011;36499;46.484;13.832;2023-04-12T01:22:22;1.63;;;1.40;;
12469;SDS011;36499;46.484;13.832;2023-04-12T01:25:23;7.00;;;1.43;;
12469;SDS011;36499;46.484;13.832;2023-04-12T01:28:04;1.33;;;1.10;;
12469;SDS011;36499;46.484;13.832;2023-04-12T01:30:35;2.00;;;1.40;;
12469;SDS011;36499;46.484;13.832;2023-04-12T01:33:04;1.63;;;1.00;;
12469;SDS011;36499;46.484;13.832;2023-04-12T01:35:35;1.23;;;1.00;;
12469;SDS011;36499;46.484;13.832;2023-04-12T01:38:05;1.50;;;1.40;;
12469;SDS011;36499;46.484;13.832;2023-04-12T01:40:32;2.67;;;1.73;;
12469;SDS011;36499;46.484;13.832;2023-04-12T01:43:06;1.47;;;1.30;;
12469;SDS011;36499;46.484;13.832;2023-04-12T01:45:35;1.20;;;1.10;;
12469;SDS011;36499;46.484;13.832;2023-04-12T01:48:03;2.87;;;1.60;;
12469;SDS011;36499;46.484;13.832;2023-04-12T01:50:35;1.40;;;1.30;;
12469;SDS011;36499;46.484;13.832;2023-04-12T01:53:11;2.47;;;1.20;;
12469;SDS011;36499;46.484;13.832;2023-04-12T01:55:44;1.57;;;1.20;;
12469;SDS011;36499;46.484;13.832;2023-04-12T01:58:18;3.13;;;1.23;;
12469;SDS011;36499;46.484;13.832;2023-04-12T02:00:47;1.20;;;1.00;;
12469;SDS011;36499;46.484;13.832;2023-04-12T02:03:17;1.80;;;1.17;;
12469;SDS011;36499;46.484;13.832;2023-04-12T02:05:46;3.10;;;1.27;;
12469;SDS011;36499;46.484;13.832;2023-04-12T02:08:14;1.43;;;1.30;;
12469;SDS011;36499;46.484;13.832;2023-04-12T02:10:42;1.50;;;1.23;;
12469;SDS011;36499;46.484;13.832;2023-04-12T02:13:09;1.93;;;1.47;;
12469;SDS011;36499;46.484;13.832;2023-04-12T02:15:37;2.80;;;1.50;;
12469;SDS011;36499;46.484;13.832;2023-04-12T02:18:04;2.47;;;1.50;;
12469;SDS011;36499;46.484;13.832;2023-04-12T02:20:31;1.70;;;1.60;;
12469;SDS011;36499;46.484;13.832;2023-04-12T02:22:59;2.13;;;1.10;;
12469;SDS011;36499;46.484;13.832;2023-04-12T02:25:26;1.33;;;1.13;;
12469;SDS011;36499;46.484;13.832;2023-04-12T02:27:54;1.90;;;1.00;;
12469;SDS011;36499;46.484;13.832;2023-04-12T02:30:21;2.00;;;1.10;;
12469;SDS011;36499;46.484;13.832;2023-04-12T02:32:50;1.30;;;1.20;;
12469;SDS011;36499;46.484;13.832;2023-04-12T02:35:17;1.60;;;1.23;;
12469;SDS011;36499;46.484;13.832;2023-04-12T02:37:45;4.10;;;2.33;;
12469;SDS011;36499;46.484;13.832;2023-04-12T02:40:12;6.27;;;2.77;;
12469;SDS011;36499;46.484;13.832;2023-04-12T02:42:40;3.20;;;1.63;;
12469;SDS011;36499;46.484;13.832;2023-04-12T02:45:08;1.30;;;1.00;;
12469;SDS011;36499;46.484;13.832;2023-04-12T02:47:36;2.07;;;1.00;;
12469;SDS011;36499;46.484;13.832;2023-04-12T02:50:06;1.23;;;1.10;;
12469;SDS011;36499;46.484;13.832;2023-04-12T02:52:34;4.57;;;2.03;;
12469;SDS011;36499;46.484;13.832;2023-04-12T02:55:01;3.33;;;1.80;;
12469;SDS011;36499;46.484;13.832;2023-04-12T02:57:29;2.50;;;1.30;;
12469;SDS011;36499;46.484;13.832;2023-04-12T02:59:56;1.73;;;1.20;;
12469;SDS011;36499;46.484;13.832;2023-04-12T03:02:23;2.10;;;1.17;;
12469;SDS011;36499;46.484;13.832;2023-04-12T03:04:50;2.13;;;1.33;;
12469;SDS011;36499;46.484;13.832;2023-04-12T03:07:19;1.77;;;1.00;;
12469;SDS011;36499;46.484;13.832;2023-04-12T03:09:46;1.33;;;1.10;;
12469;SDS011;36499;46.484;13.832;2023-04-12T03:12:15;1.63;;;1.00;;
12469;SDS011;36499;46.484;13.832;2023-04-12T03:14:42;1.47;;;0.90;;
12469;SDS011;36499;46.484;13.832;2023-04-12T03:17:09;1.50;;;1.00;;
12469;SDS011;36499;46.484;13.832;2023-04-12T03:19:36;2.00;;;1.10;;
12469;SDS011;36499;46.484;13.832;2023-04-12T03:22:03;1.20;;;1.10;;
12469;SDS011;36499;46.484;13.832;2023-04-12T03:24:33;1.33;;;1.20;;
12469;SDS011;36499;46.484;13.832;2023-04-12T03:27:01;1.50;;;1.10;;
12469;SDS011;36499;46.484;13.832;2023-04-12T03:29:32;9.70;;;4.90;;
12469;SDS011;36499;46.484;13.832;2023-04-12T03:31:59;2.37;;;1.60;;
12469;SDS011;36499;46.484;13.832;2023-04-12T03:34:26;4.03;;;1.80;;
12469;SDS011;36499;46.484;13.832;2023-04-12T03:36:56;9.37;;;3.20;;
12469;SDS011;36499;46.484;13.832;2023-04-12T03:39:23;4.40;;;3.83;;
12469;SDS011;36499;46.484;13.832;2023-04-12T03:41:51;3.67;;;2.30;;
12469;SDS011;36499;46.484;13.832;2023-04-12T03:44:19;2.00;;;1.60;;
12469;SDS011;36499;46.484;13.832;2023-04-12T03:46:46;3.37;;;1.53;;
12469;SDS011;36499;46.484;13.832;2023-04-12T03:49:13;1.63;;;1.47;;
12469;SDS011;36499;46.484;13.832;2023-04-12T03:51:41;2.40;;;1.70;;
12469;SDS011;36499;46.484;13.832;2023-04-12T03:54:10;3.17;;;1.50;;
12469;SDS011;36499;46.484;13.832;2023-04-12T03:56:38;9.00;;;2.20;;
12469;SDS011;36499;46.484;13.832;2023-04-12T03:59:07;6.47;;;2.30;;
12469;SDS011;36499;46.484;13.832;2023-04-12T04:01:34;4.23;;;2.53;;
12469;SDS011;36499;46.484;13.832;2023-04-12T04:04:02;3.87;;;2.60;;
12469;SDS011;36499;46.484;13.832;2023-04-12T04:06:30;2.93;;;1.97;;
12469;SDS011;36499;46.484;13.832;2023-04-12T04:08:58;4.00;;;2.00;;
12469;SDS011;36499;46.484;13.832;2023-04-12T04:11:25;2.67;;;2.03;;
12469;SDS011;36499;46.484;13.832;2023-04-12T04:13:53;2.83;;;1.30;;
12469;SDS011;36499;46.484;13.832;2023-04-12T04:16:21;1.83;;;1.27;;
12469;SDS011;36499;46.484;13.832;2023-04-12T04:18:48;3.67;;;1.23;;
12469;SDS011;36499;46.484;13.832;2023-04-12T04:21:15;1.97;;;1.27;;
12469;SDS011;36499;46.484;13.832;2023-04-12T04:23:43;1.90;;;1.50;;
12469;SDS011;36499;46.484;13.832;2023-04-12T04:26:12;2.63;;;1.90;;
12469;SDS011;36499;46.484;13.832;2023-04-12T04:28:40;2.77;;;1.63;;
12469;SDS011;36499;46.484;13.832;2023-04-12T04:31:09;4.80;;;1.80;;
12469;SDS011;36499;46.484;13.832;2023-04-12T04:33:39;4.47;;;1.63;;
12469;SDS011;36499;46.484;13.832;2023-04-12T04:36:07;3.07;;;1.73;;
12469;SDS011;36499;46.484;13.832;2023-04-12T04:38:35;2.40;;;1.80;;
12469;SDS011;36499;46.484;13.832;2023-04-12T04:41:04;2.60;;;2.20;;
12469;SDS011;36499;46.484;13.832;2023-04-12T04:43:33;4.10;;;2.17;;
12469;SDS011;36499;46.484;13.832;2023-04-12T04:46:04;3.97;;;2.03;;
12469;SDS011;36499;46.484;13.832;2023-04-12T04:48:31;3.77;;;1.90;;
12469;SDS011;36499;46.484;13.832;2023-04-12T04:51:00;2.77;;;2.00;;
12469;SDS011;36499;46.484;13.832;2023-04-12T04:53:27;2.63;;;2.10;;
12469;SDS011;36499;46.484;13.832;2023-04-12T04:55:57;3.23;;;2.20;;
12469;SDS011;36499;46.484;13.832;2023-04-12T04:58:25;2.23;;;1.80;;
12469;SDS011;36499;46.484;13.832;2023-04-12T05:00:54;1.70;;;1.40;;
12469;SDS011;36499;46.484;13.832;2023-04-12T05:03:23;1.63;;;1.50;;
12469;SDS011;36499;46.484;13.832;2023-04-12T05:05:52;1.30;;;1.20;;
12469;SDS011;36499;46.484;13.832;2023-04-12T05:08:21;2.43;;;1.80;;
12469;SDS011;36499;46.484;13.832;2023-04-12T05:10:49;3.10;;;1.60;;
12469;SDS011;36499;46.484;13.832;2023-04-12T05:13:18;3.13;;;1.90;;
12469;SDS011;36499;46.484;13.832;2023-04-12T05:15:46;2.57;;;1.87;;
12469;SDS011;36499;46.484;13.832;2023-04-12T05:18:13;4.53;;;2.30;;
12469;SDS011;36499;46.484;13.832;2023-04-12T05:20:41;3.87;;;1.80;;
12469;SDS011;36499;46.484;13.832;2023-04-12T05:23:08;2.97;;;1.73;;
12469;SDS011;36499;46.484;13.832;2023-04-12T05:25:42;4.23;;;2.07;;
12469;SDS011;36499;46.484;13.832;2023-04-12T05:28:11;4.37;;;2.07;;
12469;SDS011;36499;46.484;13.832;2023-04-12T05:30:39;1.77;;;1.30;;
12469;SDS011;36499;46.484;13.832;2023-04-12T05:33:06;1.53;;;1.37;;
12469;SDS011;36499;46.484;13.832;2023-04-12T05:35:33;5.07;;;1.53;;
12469;SDS011;36499;46.484;13.832;2023-04-12T05:38:00;1.20;;;1.10;;
12469;SDS011;36499;46.484;13.832;2023-04-12T05:40:28;2.57;;;1.00;;
12469;SDS011;36499;46.484;13.832;2023-04-12T05:42:58;2.80;;;1.50;;
12469;SDS011;36499;46.484;13.832;2023-04-12T05:45:25;2.37;;;1.30;;
12469;SDS011;36499;46.484;13.832;2023-04-12T05:47:52;2.13;;;1.43;;
12469;SDS011;36499;46.484;13.832;2023-04-12T05:50:20;1.37;;;1.27;;
12469;SDS011;36499;46.484;13.832;2023-04-12T05:52:47;1.57;;;1.40;;
12469;SDS011;36499;46.484;13.832;2023-04-12T05:55:16;2.60;;;1.67;;
12469;SDS011;36499;46.484;13.832;2023-04-12T05:57:43;2.13;;;1.90;;
12469;SDS011;36499;46.484;13.832;2023-04-12T06:00:13;3.60;;;2.10;;
12469;SDS011;36499;46.484;13.832;2023-04-12T06:02:43;2.33;;;1.60;;
12469;SDS011;36499;46.484;13.832;2023-04-12T06:05:11;4.87;;;1.97;;
12469;SDS011;36499;46.484;13.832;2023-04-12T06:07:40;7.00;;;2.03;;
12469;SDS011;36499;46.484;13.832;2023-04-12T06:10:10;3.73;;;2.60;;
12469;SDS011;36499;46.484;13.832;2023-04-12T06:12:39;3.13;;;2.13;;
12469;SDS011;36499;46.484;13.832;2023-04-12T06:15:06;3.33;;;2.67;;
12469;SDS011;36499;46.484;13.832;2023-04-12T06:17:35;4.97;;;1.97;;
12469;SDS011;36499;46.484;13.832;2023-04-12T06:20:02;1.90;;;1.50;;
12469;SDS011;36499;46.484;13.832;2023-04-12T06:22:32;3.17;;;1.50;;
12469;SDS011;36499;46.484;13.832;2023-04-12T06:24:59;4.27;;;1.80;;
12469;SDS011;36499;46.484;13.832;2023-04-12T06:27:26;2.60;;;2.30;;
12469;SDS011;36499;46.484;13.832;2023-04-12T06:29:53;5.27;;;2.80;;
12469;SDS011;36499;46.484;13.832;2023-04-12T06:32:20;8.00;;;3.10;;
12469;SDS011;36499;46.484;13.832;2023-04-12T06:34:49;5.00;;;3.10;;
12469;SDS011;36499;46.484;13.832;2023-04-12T06:37:16;3.83;;;2.90;;
12469;SDS011;36499;46.484;13.832;2023-04-12T06:39:43;3.60;;;2.70;;
12469;SDS011;36499;46.484;13.832;2023-04-12T06:42:10;3.87;;;2.70;;
12469;SDS011;36499;46.484;13.832;2023-04-12T06:44:38;3.80;;;2.50;;
12469;SDS011;36499;46.484;13.832;2023-04-12T06:47:05;3.00;;;2.20;;
12469;SDS011;36499;46.484;13.832;2023-04-12T06:49:33;2.70;;;2.03;;
12469;SDS011;36499;46.484;13.832;2023-04-12T06:52:01;4.57;;;2.10;;
12469;SDS011;36499;46.484;13.832;2023-04-12T06:54:28;3.07;;;1.80;;
12469;SDS011;36499;46.484;13.832;2023-04-12T06:56:56;1.27;;;1.10;;
12469;SDS011;36499;46.484;13.832;2023-04-12T06:59:24;2.90;;;1.30;;
12469;SDS011;36499;46.484;13.832;2023-04-12T07:01:51;2.23;;;1.53;;
12469;SDS011;36499;46.484;13.832;2023-04-12T07:04:18;1.90;;;1.40;;
12469;SDS011;36499;46.484;13.832;2023-04-12T07:06:45;2.97;;;1.53;;
12469;SDS011;36499;46.484;13.832;2023-04-12T07:09:13;3.80;;;2.00;;
12469;SDS011;36499;46.484;13.832;2023-04-12T07:11:40;3.43;;;1.60;;
12469;SDS011;36499;46.484;13.832;2023-04-12T07:14:07;2.17;;;1.70;;
12469;SDS011;36499;46.484;13.832;2023-04-12T07:16:34;2.90;;;1.93;;
12469;SDS011;36499;46.484;13.832;2023-04-12T07:19:01;2.43;;;2.00;;
12469;SDS011;36499;46.484;13.832;2023-04-12T07:21:28;2.67;;;2.23;;
12469;SDS011;36499;46.484;13.832;2023-04-12T07:23:55;2.60;;;2.13;;
12469;SDS011;36499;46.484;13.832;2023-04-12T07:26:24;6.93;;;5.27;;
12469;SDS011;36499;46.484;13.832;2023-04-12T07:28:51;2.50;;;2.10;;
12469;SDS011;36499;46.484;13.832;2023-04-12T07:31:18;5.67;;;2.50;;
12469;SDS011;36499;46.484;13.832;2023-04-12T07:33:46;4.53;;;2.73;;
12469;SDS011;36499;46.484;13.832;2023-04-12T07:36:13;5.50;;;3.07;;
12469;SDS011;36499;46.484;13.832;2023-04-12T07:38:45;4.70;;;3.57;;
12469;SDS011;36499;46.484;13.832;2023-04-12T07:41:12;6.13;;;3.60;;
12469;SDS011;36499;46.484;13.832;2023-04-12T07:43:41;5.10;;;3.30;;
12469;SDS011;36499;46.484;13.832;2023-04-12T07:46:08;3.37;;;2.97;;
12469;SDS011;36499;46.484;13.832;2023-04-12T07:48:35;5.73;;;3.50;;
12469;SDS011;36499;46.484;13.832;2023-04-12T07:51:02;6.27;;;3.67;;
12469;SDS011;36499;46.484;13.832;2023-04-12T07:53:30;4.23;;;3.03;;
12469;SDS011;36499;46.484;13.832;2023-04-12T07:55:57;4.60;;;3.40;;
12469;SDS011;36499;46.484;13.832;2023-04-12T07:58:24;6.43;;;3.23;;
12469;SDS011;36499;46.484;13.832;2023-04-12T08:00:53;4.07;;;3.27;;
12469;SDS011;36499;46.484;13.832;2023-04-12T08:03:21;4.23;;;3.00;;
12469;SDS011;36499;46.484;13.832;2023-04-12T08:05:48;5.00;;;3.00;;
12469;SDS011;36499;46.484;13.832;2023-04-12T08:08:18;3.90;;;3.50;;
12469;SDS011;36499;46.484;13.832;2023-04-12T08:10:46;3.47;;;3.00;;
12469;SDS011;36499;46.484;13.832;2023-04-12T08:13:13;4.57;;;3.37;;
12469;SDS011;36499;46.484;13.832;2023-04-12T08:15:40;4.03;;;3.07;;
12469;SDS011;36499;46.484;13.832;2023-04-12T08:18:10;4.50;;;3.17;;
12469;SDS011;36499;46.484;13.832;2023-04-12T08:20:37;4.60;;;3.47;;
12469;SDS011;36499;46.484;13.832;2023-04-12T08:23:05;11.83;;;4.00;;
12469;SDS011;36499;46.484;13.832;2023-04-12T08:25:33;3.53;;;2.63;;
12469;SDS011;36499;46.484;13.832;2023-04-12T08:28:00;4.57;;;2.50;;
12469;SDS011;36499;46.484;13.832;2023-04-12T08:30:28;3.83;;;2.70;;
12469;SDS011;36499;46.484;13.832;2023-04-12T08:32:55;7.00;;;2.70;;
12469;SDS011;36499;46.484;13.832;2023-04-12T08:35:23;3.50;;;2.53;;
12469;SDS011;36499;46.484;13.832;2023-04-12T08:37:51;2.83;;;2.40;;
12469;SDS011;36499;46.484;13.832;2023-04-12T08:40:18;3.33;;;2.40;;
12469;SDS011;36499;46.484;13.832;2023-04-12T08:42:46;2.83;;;2.37;;
12469;SDS011;36499;46.484;13.832;2023-04-12T08:45:13;3.60;;;2.37;;
12469;SDS011;36499;46.484;13.832;2023-04-12T08:47:41;3.60;;;2.53;;
12469;SDS011;36499;46.484;13.832;2023-04-12T08:50:11;3.40;;;2.60;;
12469;SDS011;36499;46.484;13.832;2023-04-12T08:52:40;3.30;;;2.30;;
12469;SDS011;36499;46.484;13.832;2023-04-12T08:55:08;3.57;;;2.70;;
12469;SDS011;36499;46.484;13.832;2023-04-12T08:57:38;4.57;;;2.60;;
12469;SDS011;36499;46.484;13.832;2023-04-12T09:00:07;2.80;;;2.30;;
12469;SDS011;36499;46.484;13.832;2023-04-12T09:02:37;2.67;;;2.17;;
12469;SDS011;36499;46.484;13.832;2023-04-12T09:05:07;5.83;;;2.80;;
12469;SDS011;36499;46.484;13.832;2023-04-12T09:07:34;5.03;;;2.20;;
12469;SDS011;36499;46.484;13.832;2023-04-12T09:10:03;3.17;;;2.30;;
12469;SDS011;36499;46.484;13.832;2023-04-12T09:12:31;3.03;;;2.30;;
12469;SDS011;36499;46.484;13.832;2023-04-12T09:15:05;4.03;;;2.80;;
12469;SDS011;36499;46.484;13.832;2023-04-12T09:17:36;3.30;;;2.40;;
12469;SDS011;36499;46.484;13.832;2023-04-12T09:20:16;2.80;;;2.23;;
12469;SDS011;36499;46.484;13.832;2023-04-12T09:22:50;3.00;;;2.70;;
12469;SDS011;36499;46.484;13.832;2023-04-12T09:25:34;6.10;;;3.27;;
12469;SDS011;36499;46.484;13.832;2023-04-12T09:28:04;5.23;;;3.00;;
12469;SDS011;36499;46.484;13.832;2023-04-12T09:30:45;3.60;;;2.47;;
12469;SDS011;36499;46.484;13.832;2023-04-12T09:33:15;2.83;;;2.57;;
12469;SDS011;36499;46.484;13.832;2023-04-12T09:35:44;3.37;;;2.67;;
12469;SDS011;36499;46.484;13.832;2023-04-12T09:38:12;6.20;;;2.27;;
12469;SDS011;36499;46.484;13.832;2023-04-12T09:40:41;3.33;;;2.67;;
12469;SDS011;36499;46.484;13.832;2023-04-12T09:43:08;3.87;;;3.20;;
12469;SDS011;36499;46.484;13.832;2023-04-12T09:45:35;3.33;;;2.73;;
12469;SDS011;36499;46.484;13.832;2023-04-12T09:48:06;4.50;;;2.93;;
12469;SDS011;36499;46.484;13.832;2023-04-12T09:50:42;3.53;;;2.80;;
12469;SDS011;36499;46.484;13.832;2023-04-12T09:53:15;3.10;;;2.77;;
12469;SDS011;36499;46.484;13.832;2023-04-12T09:55:44;4.67;;;2.60;;
12469;SDS011;36499;46.484;13.832;2023-04-12T09:58:15;4.43;;;2.83;;
12469;SDS011;36499;46.484;13.832;2023-04-12T10:00:45;4.70;;;2.70;;
12469;SDS011;36499;46.484;13.832;2023-04-12T10:03:14;3.33;;;2.60;;
12469;SDS011;36499;46.484;13.832;2023-04-12T10:05:43;3.67;;;2.77;;
12469;SDS011;36499;46.484;13.832;2023-04-12T10:08:11;3.03;;;2.60;;
12469;SDS011;36499;46.484;13.832;2023-04-12T10:10:39;5.00;;;2.87;;
12469;SDS011;36499;46.484;13.832;2023-04-12T10:13:10;3.03;;;2.30;;
12469;SDS011;36499;46.484;13.832;2023-04-12T10:15:39;5.97;;;2.60;;
12469;SDS011;36499;46.484;13.832;2023-04-12T10:18:06;2.90;;;2.60;;
12469;SDS011;36499;46.484;13.832;2023-04-12T10:20:37;4.03;;;2.83;;
12469;SDS011;36499;46.484;13.832;2023-04-12T10:23:06;4.43;;;2.40;;
12469;SDS011;36499;46.484;13.832;2023-04-12T10:25:35;4.60;;;2.67;;
12469;SDS011;36499;46.484;13.832;2023-04-12T10:28:15;5.00;;;2.80;;
12469;SDS011;36499;46.484;13.832;2023-04-12T10:30:45;5.23;;;2.60;;
12469;SDS011;36499;46.484;13.832;2023-04-12T10:33:15;3.83;;;2.63;;
12469;SDS011;36499;46.484;13.832;2023-04-12T10:35:54;4.03;;;3.00;;
12469;SDS011;36499;46.484;13.832;2023-04-12T10:38:26;3.00;;;2.50;;
12469;SDS011;36499;46.484;13.832;2023-04-12T10:41:06;4.60;;;2.90;;
12469;SDS011;36499;46.484;13.832;2023-04-12T10:43:39;2.90;;;2.40;;
12469;SDS011;36499;46.484;13.832;2023-04-12T10:46:07;2.97;;;2.67;;
12469;SDS011;36499;46.484;13.832;2023-04-12T10:48:54;3.50;;;2.80;;
12469;SDS011;36499;46.484;13.832;2023-04-12T10:51:22;3.53;;;2.50;;
12469;SDS011;36499;46.484;13.832;2023-04-12T10:53:50;3.60;;;2.80;;
12469;SDS011;36499;46.484;13.832;2023-04-12T10:56:34;3.33;;;2.70;;
12469;SDS011;36499;46.484;13.832;2023-04-12T10:59:07;4.37;;;2.70;;
12469;SDS011;36499;46.484;13.832;2023-04-12T11:01:35;4.50;;;2.60;;
12469;SDS011;36499;46.484;13.832;2023-04-12T11:04:11;2.80;;;2.50;;
12469;SDS011;36499;46.484;13.832;2023-04-12T11:06:54;4.13;;;2.50;;
12469;SDS011;36499;46.484;13.832;2023-04-12T11:09:24;2.43;;;2.20;;
12469;SDS011;36499;46.484;13.832;2023-04-12T11:11:57;5.00;;;2.60;;
12469;SDS011;36499;46.484;13.832;2023-04-12T11:14:41;3.83;;;2.60;;
12469;SDS011;36499;46.484;13.832;2023-04-12T11:17:20;2.80;;;2.27;;
12469;SDS011;36499;46.484;13.832;2023-04-12T11:19:50;5.57;;;2.53;;
12469;SDS011;36499;46.484;13.832;2023-04-12T11:22:24;3.13;;;2.40;;
12469;SDS011;36499;46.484;13.832;2023-04-12T11:24:54;3.07;;;2.70;;
12469;SDS011;36499;46.484;13.832;2023-04-12T11:27:24;3.47;;;2.50;;
12469;SDS011;36499;46.484;13.832;2023-04-12T11:29:54;3.73;;;2.90;;
12469;SDS011;36499;46.484;13.832;2023-04-12T11:32:23;4.37;;;2.53;;
12469;SDS011;36499;46.484;13.832;2023-04-12T11:34:53;4.33;;;2.77;;
12469;SDS011;36499;46.484;13.832;2023-04-12T11:37:22;4.67;;;2.70;;
12469;SDS011;36499;46.484;13.832;2023-04-12T11:39:51;2.80;;;2.50;;
12469;SDS011;36499;46.484;13.832;2023-04-12T11:42:22;3.40;;;2.53;;
12469;SDS011;36499;46.484;13.832;2023-04-12T11:44:51;4.70;;;2.50;;
12469;SDS011;36499;46.484;13.832;2023-04-12T11:47:20;3.17;;;2.70;;
12469;SDS011;36499;46.484;13.832;2023-04-12T11:49:50;4.93;;;2.50;;
12469;SDS011;36499;46.484;13.832;2023-04-12T11:52:20;4.57;;;2.53;;
12469;SDS011;36499;46.484;13.832;2023-04-12T11:54:54;3.80;;;2.70;;
12469;SDS011;36499;46.484;13.832;2023-04-12T11:57:23;4.07;;;2.63;;
12469;SDS011;36499;46.484;13.832;2023-04-12T11:59:50;4.83;;;2.80;;
12469;SDS011;36499;46.484;13.832;2023-04-12T12:02:19;3.27;;;2.80;;
12469;SDS011;36499;46.484;13.832;2023-04-12T12:04:47;4.70;;;2.60;;
12469;SDS011;36499;46.484;13.832;2023-04-12T12:07:15;2.87;;;2.57;;
12469;SDS011;36499;46.484;13.832;2023-04-12T12:09:44;3.33;;;2.87;;
12469;SDS011;36499;46.484;13.832;2023-04-12T12:12:12;3.83;;;2.93;;
12469;SDS011;36499;46.484;13.832;2023-04-12T12:14:42;5.30;;;3.00;;
12469;SDS011;36499;46.484;13.832;2023-04-12T12:17:12;3.10;;;2.80;;
12469;SDS011;36499;46.484;13.832;2023-04-12T12:19:43;5.37;;;2.90;;
12469;SDS011;36499;46.484;13.832;2023-04-12T12:22:13;5.80;;;2.77;;
12469;SDS011;36499;46.484;13.832;2023-04-12T12:24:45;4.10;;;2.80;;
12469;SDS011;36499;46.484;13.832;2023-04-12T12:27:16;5.73;;;2.70;;
12469;SDS011;36499;46.484;13.832;2023-04-12T12:29:47;5.40;;;2.90;;
12469;SDS011;36499;46.484;13.832;2023-04-12T12:32:17;3.27;;;2.47;;
12469;SDS011;36499;46.484;13.832;2023-04-12T12:34:54;3.03;;;2.60;;
12469;SDS011;36499;46.484;13.832;2023-04-12T12:37:23;4.43;;;2.43;;
12469;SDS011;36499;46.484;13.832;2023-04-12T12:39:59;5.53;;;2.57;;
12469;SDS011;36499;46.484;13.832;2023-04-12T12:42:36;3.63;;;2.60;;
12469;SDS011;36499;46.484;13.832;2023-04-12T12:45:10;2.87;;;2.37;;
12469;SDS011;36499;46.484;13.832;2023-04-12T12:47:47;2.70;;;2.30;;
12469;SDS011;36499;46.484;13.832;2023-04-12T12:50:21;2.40;;;2.20;;
12469;SDS011;36499;46.484;13.832;2023-04-12T12:52:50;4.50;;;2.50;;
12469;SDS011;36499;46.484;13.832;2023-04-12T12:55:19;4.03;;;2.47;;
12469;SDS011;36499;46.484;13.832;2023-04-12T12:57:48;4.73;;;2.23;;
12469;SDS011;36499;46.484;13.832;2023-04-12T13:00:18;2.63;;;2.37;;
12469;SDS011;36499;46.484;13.832;2023-04-12T13:02:48;3.53;;;2.50;;
12469;SDS011;36499;46.484;13.832;2023-04-12T13:05:16;7.57;;;2.70;;
12469;SDS011;36499;46.484;13.832;2023-04-12T13:07:45;5.27;;;2.50;;
12469;SDS011;36499;46.484;13.832;2023-04-12T13:10:12;4.40;;;2.57;;
12469;SDS011;36499;46.484;13.832;2023-04-12T13:12:40;5.80;;;2.73;;
12469;SDS011;36499;46.484;13.832;2023-04-12T13:15:07;2.80;;;2.30;;
12469;SDS011;36499;46.484;13.832;2023-04-12T13:17:36;6.43;;;3.20;;
12469;SDS011;36499;46.484;13.832;2023-04-12T13:20:03;5.40;;;2.47;;
12469;SDS011;36499;46.484;13.832;2023-04-12T13:22:33;6.33;;;2.40;;
12469;SDS011;36499;46.484;13.832;2023-04-12T13:25:01;3.63;;;2.17;;
12469;SDS011;36499;46.484;13.832;2023-04-12T13:27:28;6.20;;;2.60;;
12469;SDS011;36499;46.484;13.832;2023-04-12T13:29:55;2.50;;;2.20;;
12469;SDS011;36499;46.484;13.832;2023-04-12T13:32:22;3.33;;;2.37;;
12469;SDS011;36499;46.484;13.832;2023-04-12T13:34:49;3.47;;;2.20;;
12469;SDS011;36499;46.484;13.832;2023-04-12T13:37:16;4.10;;;2.30;;
12469;SDS011;36499;46.484;13.832;2023-04-12T13:39:45;4.40;;;2.90;;
12469;SDS011;36499;46.484;13.832;2023-04-12T13:42:12;4.40;;;2.77;;
12469;SDS011;36499;46.484;13.832;2023-04-12T13:44:39;5.17;;;2.40;;
12469;SDS011;36499;46.484;13.832;2023-04-12T13:47:06;2.83;;;2.40;;
12469;SDS011;36499;46.484;13.832;2023-04-12T13:49:33;5.17;;;2.77;;
12469;SDS011;36499;46.484;13.832;2023-04-12T13:52:01;4.43;;;2.53;;
12469;SDS011;36499;46.484;13.832;2023-04-12T13:54:28;3.17;;;2.27;;
12469;SDS011;36499;46.484;13.832;2023-04-12T13:56:57;3.10;;;2.37;;
12469;SDS011;36499;46.484;13.832;2023-04-12T13:59:24;2.90;;;2.20;;
12469;SDS011;36499;46.484;13.832;2023-04-12T14:01:51;4.90;;;2.40;;
12469;SDS011;36499;46.484;13.832;2023-04-12T14:04:19;3.73;;;2.50;;
12469;SDS011;36499;46.484;13.832;2023-04-12T14:06:46;2.70;;;2.30;;
12469;SDS011;36499;46.484;13.832;2023-04-12T14:09:21;3.47;;;2.53;;
12469;SDS011;36499;46.484;13.832;2023-04-12T14:11:49;2.20;;;2.00;;
12469;SDS011;36499;46.484;13.832;2023-04-12T14:14:20;4.10;;;2.50;;
12469;SDS011;36499;46.484;13.832;2023-04-12T14:16:48;2.67;;;2.43;;
12469;SDS011;36499;46.484;13.832;2023-04-12T14:19:17;7.30;;;2.60;;
12469;SDS011;36499;46.484;13.832;2023-04-12T14:21:45;3.43;;;2.40;;
12469;SDS011;36499;46.484;13.832;2023-04-12T14:24:13;4.17;;;2.80;;
12469;SDS011;36499;46.484;13.832;2023-04-12T14:26:40;4.33;;;2.73;;
12469;SDS011;36499;46.484;13.832;2023-04-12T14:29:09;3.30;;;2.60;;
12469;SDS011;36499;46.484;13.832;2023-04-12T14:31:38;7.20;;;3.13;;
12469;SDS011;36499;46.484;13.832;2023-04-12T14:34:05;3.80;;;3.10;;
12469;SDS011;36499;46.484;13.832;2023-04-12T14:36:33;3.13;;;2.83;;
12469;SDS011;36499;46.484;13.832;2023-04-12T14:39:00;4.93;;;2.70;;
12469;SDS011;36499;46.484;13.832;2023-04-12T14:41:29;3.63;;;2.50;;
12469;SDS011;36499;46.484;13.832;2023-04-12T14:43:57;4.30;;;2.77;;
12469;SDS011;36499;46.484;13.832;2023-04-12T14:46:25;5.47;;;2.60;;